Time;durP1;ratioP1;P1;durP2;ratioP2;P2;SDS_P1;SDS_P2;PMS_P1;PMS_P2;Temp;Humidity;BMP_temperature;BMP_pressure;BME280_temperature;BME280_humidity;BME280_pressure;Samples;Min_cycle;Max_cycle;Signal;HPM_P1;HPM_P2
2023/04/10 00:00:44;;;;;;;17.30;10.40;;;;;;;9.04;63.55;95369.03;5072676;28;20464;-75
2023/04/10 00:03:10;;;;;;;15.60;10.18;;;;;;;9.13;63.43;95370.94;5071916;28;20024;-75
2023/04/10 00:05:35;;;;;;;14.82;9.68;;;;;;;8.88;62.92;95331.16;5071170;28;20035;-75
2023/04/10 00:08:02;;;;;;;13.48;9.30;;;;;;;8.62;63.75;95297.75;5070457;28;20515;-75
2023/04/10 00:10:30;;;;;;;17.40;10.20;;;;;;;8.62;63.50;95303.78;5070403;28;20415;-75
2023/04/10 00:12:56;;;;;;;15.80;10.07;;;;;;;9.09;62.79;95364.56;5071833;28;20039;-75
2023/04/10 00:15:22;;;;;;;15.57;9.90;;;;;;;9.01;62.96;95338.59;5070075;28;20032;-75
2023/04/10 00:17:49;;;;;;;13.27;9.20;;;;;;;8.78;63.23;95333.75;5069460;28;20534;-75
2023/04/10 00:20:15;;;;;;;15.20;9.13;;;;;;;8.83;62.97;95328.50;5071886;28;20399;-75
2023/04/10 00:22:41;;;;;;;13.43;8.90;;;;;;;8.68;63.28;95326.59;5071458;28;20033;-75
2023/04/10 00:25:07;;;;;;;13.25;8.85;;;;;;;8.95;62.80;95352.88;5071507;28;20040;-75
2023/04/10 00:27:32;;;;;;;13.43;9.00;;;;;;;8.81;62.64;95341.19;5069213;28;20032;-75
2023/04/10 00:29:58;;;;;;;14.00;9.55;;;;;;;8.71;62.07;95346.41;5071337;28;20371;-75
2023/04/10 00:32:23;;;;;;;13.43;7.90;;;;;;;8.73;59.71;95342.47;5071092;28;20109;-75
2023/04/10 00:34:49;;;;;;;9.38;6.28;;;;;;;8.38;58.52;95294.72;5071291;28;20025;-75
2023/04/10 00:37:14;;;;;;;11.63;6.93;;;;;;;8.82;57.63;95338.28;5069308;28;20039;-75
2023/04/10 00:39:40;;;;;;;11.48;6.78;;;;;;;8.40;56.73;95288.09;5071404;28;20024;-75
2023/04/10 00:42:08;;;;;;;9.85;6.78;;;;;;;8.69;57.00;95348.53;5070789;28;20498;-74
2023/04/10 00:44:36;;;;;;;13.25;6.18;;;;;;;8.74;56.37;95343.25;5069402;28;20102;-75
2023/04/10 00:47:03;;;;;;;11.25;6.78;;;;;;;8.67;55.87;95316.25;5070889;28;20246;-75
2023/04/10 00:49:29;;;;;;;10.40;7.15;;;;;;;8.58;56.10;95305.38;5069984;28;20043;-74
2023/04/10 00:51:55;;;;;;;13.32;6.45;;;;;;;8.65;56.21;95319.16;5071195;28;20032;-75
2023/04/10 00:54:21;;;;;;;10.93;6.47;;;;;;;8.51;56.97;95307.47;5069304;28;20021;-74
2023/04/10 00:56:48;;;;;;;11.95;7.43;;;;;;;8.65;57.28;95323.66;5070615;28;20059;-75
2023/04/10 00:59:14;;;;;;;12.85;8.27;;;;;;;8.75;58.27;95337.72;5070092;28;20028;-75
2023/04/10 01:01:39;;;;;;;10.32;7.13;;;;;;;8.67;59.42;95322.34;5071061;28;20036;-75
2023/04/10 01:04:06;;;;;;;10.68;7.45;;;;;;;8.65;59.55;95297.22;5070716;28;20127;-75
2023/04/10 01:06:45;;;;;;;11.30;7.50;;;;;;;8.82;61.22;95327.69;5070650;28;20407;-75
2023/04/10 01:09:19;;;;;;;11.57;7.90;;;;;;;8.82;62.64;95322.41;5070210;28;20025;-75
2023/04/10 01:12:03;;;;;;;11.50;8.10;;;;;;;8.46;64.91;95275.72;5062420;28;20062;-75
2023/04/10 01:15:05;;;;;;;12.45;8.27;;;;;;;8.78;65.01;95312.59;5052649;28;20040;-75
2023/04/10 01:17:36;;;;;;;;;;;;;;;8.83;66.09;95326.66;5028037;28;20135;-75
2023/04/10 01:20:09;;;;;;;11.35;7.65;;;;;;;8.76;66.21;95301.50;5068325;28;20353;-75
2023/04/10 01:23:00;;;;;;;13.43;8.52;;;;;;;8.67;66.83;95295.13;5070611;28;20058;-75
2023/04/10 01:25:39;;;;;;;13.93;8.20;;;;;;;8.84;67.13;95325.59;5059837;28;20135;-75
2023/04/10 01:28:23;;;;;;;14.18;9.43;;;;;;;8.79;67.59;95306.25;5068917;28;20040;-75
2023/04/10 01:30:58;;;;;;;13.07;8.65;;;;;;;8.76;68.07;95299.66;5067967;28;20044;-75
2023/04/10 01:33:29;;;;;;;13.00;8.90;;;;;;;8.74;68.47;95316.81;5069136;28;20044;-73
2023/04/10 01:35:59;;;;;;;13.43;8.75;;;;;;;8.83;68.02;95313.44;5053100;28;20083;-73
2023/04/10 01:38:28;;;;;;;13.13;8.75;;;;;;;8.75;67.65;95294.63;5070788;28;20520;-74
2023/04/10 01:40:54;;;;;;;14.23;7.95;;;;;;;8.76;68.52;95294.38;5068849;28;20480;-73
2023/04/10 01:43:21;;;;;;;26.67;8.98;;;;;;;8.63;68.34;95272.88;5069945;28;20074;-73
2023/04/10 01:45:50;;;;;;;13.32;9.02;;;;;;;8.68;67.98;95289.56;5070764;28;20515;-73
2023/04/10 01:48:17;;;;;;;11.63;8.50;;;;;;;8.93;67.97;95319.78;5071047;28;20111;-73
2023/04/10 01:50:44;;;;;;;14.18;8.60;;;;;;;8.84;67.50;95307.09;5067367;28;20598;-73
2023/04/10 01:53:10;;;;;;;11.35;8.02;;;;;;;8.75;68.16;95281.41;5070194;28;20111;-74
2023/04/10 01:55:37;;;;;;;13.63;9.15;;;;;;;8.78;67.66;95286.94;5069607;28;20585;-74
2023/04/10 01:58:03;;;;;;;12.43;8.57;;;;;;;8.96;67.88;95335.94;5068679;28;20040;-74
2023/04/10 02:00:29;;;;;;;14.55;8.30;;;;;;;8.75;67.00;95316.56;5068648;28;20036;-74
2023/04/10 02:02:54;;;;;;;11.40;8.27;;;;;;;8.69;66.63;95285.88;5068256;28;20036;-74
2023/04/10 02:05:21;;;;;;;12.43;8.73;;;;;;;8.63;66.99;95267.59;5069873;28;20040;-74
2023/04/10 02:08:04;;;;;;;13.32;8.30;;;;;;;8.97;66.84;95324.31;5069744;28;20036;-74
2023/04/10 02:10:54;;;;;;;13.23;9.05;;;;;;;8.70;67.54;95287.44;5052183;28;20418;-74
2023/04/10 02:13:21;;;;;;;14.27;8.70;;;;;;;8.53;66.99;95292.16;5069348;28;20119;-74
2023/04/10 02:15:49;;;;;;;13.50;8.68;;;;;;;8.63;67.59;95292.19;5070078;28;20733;-74
2023/04/10 02:18:17;;;;;;;11.50;7.97;;;;;;;8.80;66.88;95297.28;5085353;28;20036;-74
2023/04/10 02:20:43;;;;;;;12.10;7.90;;;;;;;8.80;67.69;95292.78;5069419;28;20067;-74
2023/04/10 02:23:09;;;;;;;12.57;8.40;;;;;;;8.86;67.00;95293.59;5067672;28;20036;-74
2023/04/10 02:25:34;;;;;;;12.93;8.38;;;;;;;8.83;67.27;95291.47;5067863;28;20040;-74
2023/04/10 02:28:07;;;;;;;13.50;8.73;;;;;;;8.76;66.92;95267.91;5069707;28;20463;-74
2023/04/10 02:30:33;;;;;;;15.20;8.93;;;;;;;8.66;66.62;95253.84;5069564;28;20512;-74
2023/04/10 02:32:58;;;;;;;13.57;9.55;;;;;;;8.66;67.64;95256.50;5066545;28;20060;-74
2023/04/10 02:35:25;;;;;;;11.77;8.77;;;;;;;8.88;67.61;95292.28;5066746;28;20483;-74
2023/04/10 02:37:50;;;;;;;13.07;8.27;;;;;;;8.88;67.62;95279.06;5069164;28;20112;-74
2023/04/10 02:40:16;;;;;;;14.05;9.35;;;;;;;8.57;67.23;95239.53;5069732;28;20112;-74
2023/04/10 02:42:41;;;;;;;15.60;9.40;;;;;;;8.67;67.69;95252.81;5069438;28;20097;-74
2023/04/10 02:45:08;;;;;;;19.98;8.95;;;;;;;8.80;67.51;95271.63;5067412;28;20054;-74
2023/04/10 02:47:34;;;;;;;15.55;9.50;;;;;;;8.79;67.62;95277.16;5068022;28;20478;-75
2023/04/10 02:49:59;;;;;;;15.50;10.07;;;;;;;8.59;67.66;95240.88;5069017;28;20112;-74
2023/04/10 02:52:24;;;;;;;14.00;9.77;;;;;;;8.61;67.19;95256.50;5067828;28;20028;-75
2023/04/10 02:54:50;;;;;;;13.57;9.63;;;;;;;8.43;66.19;95233.94;5067218;28;20036;-75
2023/04/10 02:57:16;;;;;;;13.02;8.50;;;;;;;8.43;66.15;95221.53;5069266;28;20066;-75
2023/04/10 02:59:42;;;;;;;14.95;8.75;;;;;;;8.36;66.35;95209.59;5067712;28;20036;-75
2023/04/10 03:02:07;;;;;;;15.27;9.80;;;;;;;8.35;66.36;95211.44;5068957;28;20090;-75
2023/04/10 03:04:33;;;;;;;12.50;8.60;;;;;;;8.56;66.53;95241.38;5066962;28;20135;-75
2023/04/10 03:06:59;;;;;;;13.90;9.13;;;;;;;8.51;66.22;95267.81;5066709;28;20487;-74
2023/04/10 03:09:25;;;;;;;15.25;9.73;;;;;;;8.38;66.38;95239.22;5068642;28;20037;-74
2023/04/10 03:11:50;;;;;;;19.17;10.40;;;;;;;8.46;66.20;95246.66;5067611;28;20028;-76
2023/04/10 03:14:16;;;;;;;17.00;9.82;;;;;;;8.33;66.34;95228.59;5067152;28;20430;-75
2023/04/10 03:16:42;;;;;;;19.77;10.63;;;;;;;8.20;66.93;95219.28;5068756;28;20040;-75
2023/04/10 03:19:07;;;;;;;15.10;9.70;;;;;;;8.19;66.62;95225.63;5069183;28;20029;-74
2023/04/10 03:21:33;;;;;;;23.55;10.18;;;;;;;8.06;66.15;95220.81;5067574;28;20031;-75
2023/04/10 03:23:58;;;;;;;13.45;9.20;;;;;;;8.31;65.97;95257.16;5067233;28;20123;-74
2023/04/10 03:26:24;;;;;;;16.05;10.00;;;;;;;8.27;66.02;95270.03;5067008;28;20024;-75
2023/04/10 03:28:49;;;;;;;15.98;9.57;;;;;;;8.07;65.60;95239.03;5067809;28;20028;-75
2023/04/10 03:31:15;;;;;;;16.77;10.00;;;;;;;8.06;65.72;95237.44;5067651;28;20031;-75
2023/04/10 03:33:40;;;;;;;14.57;10.23;;;;;;;8.01;65.31;95234.00;5067715;28;20117;-75
2023/04/10 03:36:06;;;;;;;17.05;10.70;;;;;;;8.23;65.64;95276.91;5066635;28;20032;-75
2023/04/10 03:38:32;;;;;;;14.88;9.85;;;;;;;8.20;65.88;95277.41;5067529;28;20039;-75
2023/04/10 03:40:57;;;;;;;19.25;12.07;;;;;;;8.01;66.69;95257.75;5064887;28;20455;-75
2023/04/10 03:43:24;;;;;;;21.42;13.43;;;;;;;7.93;66.57;95243.19;5069010;28;20047;-75
2023/04/10 03:45:49;;;;;;;25.65;13.77;;;;;;;8.16;66.96;95283.47;5068111;28;20399;-75
2023/04/10 03:48:15;;;;;;;21.77;13.13;;;;;;;7.98;67.05;95260.91;5067304;28;20033;-75
2023/04/10 03:50:40;;;;;;;23.42;13.70;;;;;;;7.85;66.47;95237.59;5067381;28;20036;-75
2023/04/10 03:53:06;;;;;;;21.95;13.45;;;;;;;7.92;67.19;95257.44;5068800;28;20037;-75
2023/04/10 03:55:31;;;;;;;22.52;13.25;;;;;;;7.91;67.07;95266.41;5067254;28;20383;-74
2023/04/10 03:57:57;;;;;;;20.70;12.65;;;;;;;8.01;66.88;95281.53;5068057;28;20032;-74
2023/04/10 04:00:23;;;;;;;22.42;13.30;;;;;;;7.83;67.55;95292.47;5068818;28;20024;-74
2023/04/10 04:02:52;;;;;;;20.83;12.27;;;;;;;7.92;67.34;95297.03;5068419;28;20033;-74
2023/04/10 04:05:18;;;;;;;18.60;11.20;;;;;;;7.66;67.71;95274.13;5068382;28;20166;-74
2023/04/10 04:07:44;;;;;;;18.38;11.60;;;;;;;7.57;67.55;95270.34;5066505;28;20123;-74
2023/04/10 04:10:09;;;;;;;20.58;11.85;;;;;;;7.56;67.25;95272.19;5068002;28;20044;-74
2023/04/10 04:12:35;;;;;;;18.25;11.00;;;;;;;7.42;67.97;95301.91;5066750;28;20507;-74
2023/04/10 04:15:00;;;;;;;17.33;11.43;;;;;;;7.34;67.97;95271.47;5068226;28;20047;-74
2023/04/10 04:17:26;;;;;;;18.65;12.35;;;;;;;7.50;68.03;95306.72;5066475;28;20048;-74
2023/04/10 04:19:51;;;;;;;21.98;11.85;;;;;;;7.39;67.83;95283.94;5070343;28;20392;-74
2023/04/10 04:22:17;;;;;;;20.35;11.70;;;;;;;7.38;67.87;95282.34;5058209;28;20029;-74
2023/04/10 04:24:42;;;;;;;20.25;12.55;;;;;;;7.28;68.09;95261.94;5058850;28;20037;-74
2023/04/10 04:27:08;;;;;;;17.92;12.30;;;;;;;7.30;67.82;95268.56;5063453;28;20027;-73
2023/04/10 04:29:33;;;;;;;23.90;13.40;;;;;;;7.29;68.35;95268.81;5064796;28;20478;-74
2023/04/10 04:31:59;;;;;;;21.17;12.50;;;;;;;7.39;68.69;95268.91;5062707;28;20024;-74
2023/04/10 04:34:24;;;;;;;26.48;14.52;;;;;;;7.47;68.86;95276.38;5066789;28;20035;-74
2023/04/10 04:36:50;;;;;;;20.08;12.70;;;;;;;7.59;68.96;95290.19;5068707;28;20033;-74
2023/04/10 04:39:15;;;;;;;22.00;13.23;;;;;;;7.59;69.11;95287.53;5065177;28;20028;-74
2023/04/10 04:41:40;;;;;;;22.90;13.80;;;;;;;7.40;69.04;95246.72;5066610;28;20056;-74
2023/04/10 04:44:06;;;;;;;25.33;14.95;;;;;;;7.46;69.44;95258.16;5060833;28;20102;-74
2023/04/10 04:46:31;;;;;;;35.35;18.67;;;;;;;7.88;69.32;95314.44;5064731;28;20032;-73
2023/04/10 04:48:57;;;;;;;31.73;17.20;;;;;;;7.85;69.30;95312.31;5061692;28;20048;-74
2023/04/10 04:51:22;;;;;;;27.92;15.90;;;;;;;7.65;69.38;95278.63;5061486;28;20737;-74
2023/04/10 04:53:48;;;;;;;28.50;15.55;;;;;;;7.25;69.14;95218.38;5062375;28;20428;-74
2023/04/10 04:56:14;;;;;;;27.55;15.35;;;;;;;8.01;69.40;95313.22;5062876;28;20024;-74
2023/04/10 04:58:39;;;;;;;25.70;15.10;;;;;;;7.83;68.81;95287.19;5059128;28;20864;-74
2023/04/10 05:01:05;;;;;;;30.27;15.43;;;;;;;7.97;68.50;95306.84;5061292;28;20562;-75
2023/04/10 05:03:31;;;;;;;28.20;15.05;;;;;;;7.73;68.63;95267.59;5058065;28;20203;-75
2023/04/10 05:05:57;;;;;;;30.08;15.43;;;;;;;7.87;69.28;95293.56;5057476;28;20127;-74
2023/04/10 05:08:22;;;;;;;26.90;14.13;;;;;;;8.19;68.46;95331.28;5061202;28;20624;-74
2023/04/10 05:10:48;;;;;;;24.55;14.52;;;;;;;8.23;68.14;95328.94;5061639;28;20032;-74
2023/04/10 05:13:16;;;;;;;24.10;13.57;;;;;;;8.05;68.48;95287.88;5062824;28;20082;-74
2023/04/10 05:15:42;;;;;;;30.23;14.60;;;;;;;8.22;67.79;95319.44;5062276;28;20112;-74
2023/04/10 05:18:07;;;;;;;28.15;13.63;;;;;;;7.94;67.88;95280.91;5062156;28;20111;-75
2023/04/10 05:20:36;;;;;;;20.25;12.02;;;;;;;8.31;67.65;95324.00;5063146;28;20032;-74
2023/04/10 05:23:02;;;;;;;18.90;11.88;;;;;;;8.11;67.61;95292.94;5062153;28;20056;-74
2023/04/10 05:25:27;;;;;;;20.23;11.95;;;;;;;8.30;67.10;95332.97;5063117;28;20318;-75
2023/04/10 05:27:53;;;;;;;19.33;12.23;;;;;;;8.43;67.17;95326.44;5060075;28;20040;-75
2023/04/10 05:30:18;;;;;;;24.58;11.57;;;;;;;8.36;66.77;95312.66;5063008;28;20485;-75
2023/04/10 05:32:44;;;;;;;20.55;11.45;;;;;;;8.55;66.55;95334.16;5065242;28;20025;-75
2023/04/10 05:35:10;;;;;;;24.27;11.15;;;;;;;8.28;65.52;95276.91;5061171;28;20495;-75
2023/04/10 05:37:36;;;;;;;20.55;11.55;;;;;;;8.63;65.96;95331.84;5061386;28;20039;-75
2023/04/10 05:40:02;;;;;;;17.13;10.95;;;;;;;8.56;65.67;95307.47;5063451;28;20028;-75
2023/04/10 05:42:27;;;;;;;20.38;11.93;;;;;;;8.59;65.05;95308.81;5067464;28;20031;-75
2023/04/10 05:44:53;;;;;;;18.73;11.77;;;;;;;8.66;64.84;95318.09;5065550;28;20423;-77
2023/04/10 05:47:18;;;;;;;24.42;13.68;;;;;;;8.74;64.16;95328.19;5064276;28;20029;-75
2023/04/10 05:49:44;;;;;;;22.90;12.32;;;;;;;8.79;64.06;95333.50;5065257;28;20103;-75
2023/04/10 05:52:09;;;;;;;22.20;11.52;;;;;;;8.79;63.88;95336.13;5065251;28;20119;-75
2023/04/10 05:54:35;;;;;;;30.55;12.15;;;;;;;8.61;64.14;95293.50;5064260;28;20090;-75
2023/04/10 05:57:00;;;;;;;22.00;12.02;;;;;;;8.66;63.45;95296.16;5062051;28;20063;-76
2023/04/10 05:59:26;;;;;;;23.52;13.05;;;;;;;8.74;62.48;95328.19;5065207;28;20036;-75
2023/04/10 06:01:51;;;;;;;25.35;13.77;;;;;;;8.70;62.78;95307.78;5058836;28;20565;-75
2023/04/10 06:04:17;;;;;;;21.55;13.63;;;;;;;8.94;62.46;95337.25;5064418;28;20028;-75
2023/04/10 06:06:42;;;;;;;24.38;14.27;;;;;;;8.68;61.86;95284.28;5061876;28;20536;-75
2023/04/10 06:09:08;;;;;;;30.17;14.45;;;;;;;8.92;61.84;95313.72;5060165;28;20386;-76
2023/04/10 06:11:33;;;;;;;24.85;12.63;;;;;;;8.61;62.26;95286.38;5058097;28;20028;-75
2023/04/10 06:14:00;;;;;;;29.70;13.35;;;;;;;8.99;62.12;95314.28;5060487;28;20028;-75
2023/04/10 06:16:25;;;;;;;25.65;13.73;;;;;;;8.90;61.71;95276.16;5065245;28;20024;-76
2023/04/10 06:18:51;;;;;;;24.02;12.32;;;;;;;9.25;61.32;95331.81;5061986;28;20555;-75
2023/04/10 06:21:17;;;;;;;32.42;13.80;;;;;;;8.93;60.98;95291.50;5060564;28;20025;-75
2023/04/10 06:23:42;;;;;;;30.20;12.77;;;;;;;9.33;61.28;95329.69;5062971;28;20036;-76
2023/04/10 06:26:08;;;;;;;29.40;12.02;;;;;;;9.44;61.22;95324.19;5064250;28;20028;-75
2023/04/10 06:28:33;;;;;;;23.85;12.57;;;;;;;9.25;60.43;95280.72;5065349;28;20411;-76
2023/04/10 06:31:02;;;;;;;25.80;13.20;;;;;;;9.60;60.06;95327.66;5058070;28;20024;-75
2023/04/10 06:33:27;;;;;;;27.35;13.85;;;;;;;9.73;60.27;95321.81;5073053;28;20033;-75
2023/04/10 06:35:53;;;;;;;43.42;15.63;;;;;;;9.72;59.70;95322.09;5064935;28;20543;-75
2023/04/10 06:38:18;;;;;;;26.67;13.52;;;;;;;9.65;59.70;95294.00;5052987;28;20044;-75
2023/04/10 06:40:43;;;;;;;24.83;12.35;;;;;;;9.84;59.75;95312.03;5056948;28;20108;-75
2023/04/10 06:43:09;;;;;;;28.85;14.93;;;;;;;9.95;59.88;95317.06;5060332;28;20035;-75
2023/04/10 06:45:35;;;;;;;24.50;13.55;;;;;;;9.84;59.41;95293.50;5059292;28;20064;-75
2023/04/10 06:48:00;;;;;;;23.55;12.20;;;;;;;9.98;58.94;95299.84;5053590;28;20499;-75
2023/04/10 06:50:25;;;;;;;22.17;12.00;;;;;;;10.10;59.06;95305.66;5059654;28;20145;-76
2023/04/10 06:52:54;;;;;;;23.88;12.13;;;;;;;9.98;58.76;95315.75;5057479;28;20125;-76
2023/04/10 06:55:20;;;;;;;18.95;12.10;;;;;;;10.07;57.71;95314.13;5056879;28;20043;-76
2023/04/10 06:57:45;;;;;;;21.70;12.57;;;;;;;10.28;56.91;95323.69;5060531;28;20032;-75
2023/04/10 07:00:11;;;;;;;20.80;12.40;;;;;;;10.34;57.49;95341.19;5062900;28;20510;-75
2023/04/10 07:02:36;;;;;;;21.58;13.70;;;;;;;10.42;56.76;95337.19;5059494;28;20025;-76
2023/04/10 07:05:02;;;;;;;23.85;13.77;;;;;;;10.12;56.56;95286.84;5056458;28;20093;-75
2023/04/10 07:07:28;;;;;;;23.67;12.88;;;;;;;10.37;56.91;95323.94;5057737;28;20450;-78
2023/04/10 07:09:53;;;;;;;27.63;13.10;;;;;;;10.12;56.80;95274.38;5056890;28;20128;-77
2023/04/10 07:12:18;;;;;;;20.42;12.10;;;;;;;10.55;56.89;95335.81;5057098;28;20384;-78
2023/04/10 07:14:44;;;;;;;18.15;12.77;;;;;;;10.17;56.32;95276.22;5056037;28;20107;-77
2023/04/10 07:17:09;;;;;;;24.25;14.50;;;;;;;10.28;55.61;95294.53;5056492;28;20511;-77
2023/04/10 07:19:36;;;;;;;27.63;14.88;;;;;;;10.41;56.50;95322.34;5055786;28;20025;-77
2023/04/10 07:22:02;;;;;;;21.52;13.35;;;;;;;10.43;56.04;95320.22;5057999;28;20047;-77
2023/04/10 07:24:27;;;;;;;23.55;13.50;;;;;;;10.47;56.23;95312.50;5056696;28;20040;-77
2023/04/10 07:26:53;;;;;;;22.98;13.80;;;;;;;10.68;56.41;95340.59;5057251;28;20047;-77
2023/04/10 07:29:19;;;;;;;25.20;13.65;;;;;;;10.29;56.81;95340.41;5057787;28;20052;-77
2023/04/10 07:31:45;;;;;;;25.58;14.45;;;;;;;10.27;57.13;95310.69;5059516;28;20510;-76
2023/04/10 07:34:11;;;;;;;26.60;13.55;;;;;;;10.32;56.61;95321.28;5058380;28;20464;-76
2023/04/10 07:36:36;;;;;;;20.52;12.73;;;;;;;10.14;56.62;95306.72;5055577;28;20052;-76
2023/04/10 07:39:02;;;;;;;20.50;13.43;;;;;;;10.23;57.28;95318.38;5058514;28;20036;-77
2023/04/10 07:41:27;;;;;;;20.02;12.70;;;;;;;10.22;56.53;95318.66;5061171;28;20024;-76
2023/04/10 07:43:53;;;;;;;23.20;13.50;;;;;;;10.26;57.30;95309.91;5057404;28;20038;-76
2023/04/10 07:46:18;;;;;;;23.35;12.80;;;;;;;10.46;56.71;95314.34;5062799;28;20671;-76
2023/04/10 07:48:45;;;;;;;26.33;16.42;;;;;;;10.72;56.46;95341.63;5059774;28;20564;-77
2023/04/10 07:51:11;;;;;;;27.75;14.23;;;;;;;10.52;56.28;95315.16;5059708;28;20070;-76
2023/04/10 07:53:36;;;;;;;27.73;15.60;;;;;;;10.76;56.01;95316.13;5061576;28;20032;-76
2023/04/10 07:56:02;;;;;;;25.13;14.80;;;;;;;10.96;55.61;95336.50;5061690;28;20113;-76
2023/04/10 07:58:27;;;;;;;31.05;15.60;;;;;;;10.82;54.72;95309.75;5065836;28;20040;-76
2023/04/10 08:00:53;;;;;;;19.63;13.45;;;;;;;11.17;55.33;95344.09;5061798;28;20032;-77
2023/04/10 08:03:18;;;;;;;30.23;15.07;;;;;;;11.20;54.81;95337.47;5060336;28;20058;-77
2023/04/10 08:05:44;;;;;;;21.80;13.95;;;;;;;11.13;54.81;95319.19;5059502;28;20087;-77
2023/04/10 08:08:09;;;;;;;25.45;13.82;;;;;;;11.31;53.68;95344.28;5058521;28;20554;-77
2023/04/10 08:10:39;;;;;;;25.20;14.63;;;;;;;11.13;53.65;95307.78;5059560;28;20036;-77
2023/04/10 08:13:05;;;;;;;22.85;13.45;;;;;;;11.38;54.71;95339.47;5063096;28;20039;-77
2023/04/10 08:15:30;;;;;;;20.83;14.15;;;;;;;11.23;54.07;95305.84;5064195;28;20029;-77
2023/04/10 08:17:56;;;;;;;23.40;13.15;;;;;;;11.16;53.37;95321.28;5069647;28;20478;-77
2023/04/10 08:20:21;;;;;;;22.67;14.65;;;;;;;11.35;54.14;95340.03;5064471;28;20414;-77
2023/04/10 08:22:47;;;;;;;23.67;13.45;;;;;;;11.35;55.14;95329.41;5060146;28;20044;-77
2023/04/10 08:25:12;;;;;;;27.83;14.15;;;;;;;11.06;55.81;95304.63;5063898;28;20028;-77
2023/04/10 08:27:38;;;;;;;21.48;13.13;;;;;;;11.23;55.70;95308.50;5061039;28;20077;-77
2023/04/10 08:30:04;;;;;;;19.35;13.02;;;;;;;11.32;55.07;95327.31;5059614;28;20064;-77
2023/04/10 08:32:30;;;;;;;19.38;13.55;;;;;;;11.25;54.78;95294.94;5062873;28;20037;-76
2023/04/10 08:34:55;;;;;;;28.67;13.48;;;;;;;11.48;53.98;95318.19;5062364;28;20414;-77
2023/04/10 08:37:21;;;;;;;23.00;13.90;;;;;;;11.21;54.71;95312.50;5062768;28;20747;-77
2023/04/10 08:39:47;;;;;;;24.17;13.00;;;;;;;11.55;53.72;95320.53;5064180;28;20125;-77
2023/04/10 08:42:12;;;;;;;20.67;13.75;;;;;;;11.51;54.16;95317.66;5063893;28;20038;-77
2023/04/10 08:44:38;;;;;;;19.27;12.63;;;;;;;11.71;54.61;95337.94;5059339;28;20155;-77
2023/04/10 08:47:04;;;;;;;25.77;13.50;;;;;;;11.35;53.27;95294.09;5062689;28;20047;-77
2023/04/10 08:49:43;;;;;;;30.67;15.07;;;;;;;11.50;53.49;95334.66;5063627;28;20473;-77
2023/04/10 08:52:15;;;;;;;25.25;13.52;;;;;;;11.44;54.20;95337.59;5063363;28;20028;-77
2023/04/10 08:54:45;;;;;;;18.90;12.90;;;;;;;11.51;54.08;95308.88;5063748;28;20119;-77
2023/04/10 08:57:19;;;;;;;20.73;11.95;;;;;;;11.44;54.00;95314.47;5056083;28;20124;-78
2023/04/10 08:59:53;;;;;;;19.17;12.63;;;;;;;11.03;53.91;95283.94;5055980;28;20047;-78
2023/04/10 09:02:19;;;;;;;18.17;12.50;;;;;;;11.15;53.92;95313.56;5059129;28;20557;-78
2023/04/10 09:04:51;;;;;;;16.08;10.98;;;;;;;11.07;52.90;95269.81;5061126;28;20045;-78
2023/04/10 09:07:17;;;;;;;19.48;11.38;;;;;;;11.58;52.02;95306.69;5063611;28;20044;-77
2023/04/10 09:09:43;;;;;;;16.80;11.90;;;;;;;11.67;51.76;95317.53;5060556;28;20490;-77
2023/04/10 09:12:09;;;;;;;15.38;11.02;;;;;;;11.76;52.09;95307.91;5056785;28;20418;-77
2023/04/10 09:14:36;;;;;;;16.92;11.15;;;;;;;11.59;51.44;95282.50;5057776;28;20064;-76
2023/04/10 09:17:20;;;;;;;19.13;12.30;;;;;;;11.90;51.62;95322.19;5056265;28;20075;-77
2023/04/10 09:19:51;;;;;;;17.75;10.93;;;;;;;11.53;51.23;95233.16;5069313;28;20068;-78
2023/04/10 09:22:17;;;;;;;15.18;10.85;;;;;;;11.83;50.60;95295.09;5071525;28;20043;-75
2023/04/10 09:24:45;;;;;;;16.60;11.35;;;;;;;11.79;51.58;95294.09;5060299;28;20032;-78
2023/04/10 09:27:28;;;;;;;22.48;12.43;;;;;;;11.96;50.77;95302.47;5064241;28;20036;-78
2023/04/10 09:29:54;;;;;;;21.15;13.40;;;;;;;11.78;51.14;95297.81;5061282;28;20115;-78
2023/04/10 09:32:42;;;;;;;18.83;11.63;;;;;;;11.83;51.10;95297.75;5056898;28;20032;-80
2023/04/10 09:35:13;;;;;;;19.65;11.27;;;;;;;11.89;49.78;95299.34;5059346;28;20036;-76
2023/04/10 09:37:40;;;;;;;20.85;10.45;;;;;;;11.94;50.37;95309.91;5058938;28;20032;-78
2023/04/10 09:40:19;;;;;;;18.92;11.77;;;;;;;11.95;50.68;95300.88;5057639;28;20055;-78
2023/04/10 09:42:45;;;;;;;17.67;11.98;;;;;;;11.46;51.39;95258.44;5061592;28;20090;-77
2023/04/10 09:45:10;;;;;;;16.83;10.55;;;;;;;11.91;49.78;95303.28;5012733;28;1144583;-78
2023/04/10 09:47:36;;;;;;;17.63;10.85;;;;;;;11.93;49.60;95287.06;5058957;28;20356;-84
2023/04/10 09:50:02;;;;;;;15.77;10.57;;;;;;;11.94;49.85;95280.69;5060014;28;20124;-78
2023/04/10 09:52:30;;;;;;;16.95;10.25;;;;;;;11.76;48.92;95289.31;5076605;28;20123;-78
2023/04/10 09:55:04;;;;;;;15.45;10.05;;;;;;;11.56;49.33;95263.69;5056037;28;20410;-77
2023/04/10 09:57:31;;;;;;;17.05;9.63;;;;;;;11.61;50.14;95292.84;5076365;28;20020;-79
2023/04/10 10:00:07;;;;;;;13.90;9.50;;;;;;;12.02;49.01;95292.56;5062126;28;20616;-79
2023/04/10 10:02:37;;;;;;;13.48;9.50;;;;;;;12.23;48.88;95286.00;5062140;28;20079;-80
2023/04/10 10:05:04;;;;;;;15.47;9.30;;;;;;;12.43;48.21;95277.03;5057337;28;20055;-77
2023/04/10 10:07:30;;;;;;;15.00;9.32;;;;;;;12.48;48.11;95261.00;5059076;28;20028;-79
2023/04/10 10:09:57;;;;;;;13.32;9.93;;;;;;;12.56;47.47;95223.16;5061503;28;20388;-79
2023/04/10 10:12:33;;;;;;;14.20;9.70;;;;;;;13.16;46.76;95284.72;5063874;28;20121;-77
2023/04/10 10:14:58;;;;;;;14.80;9.75;;;;;;;13.03;46.78;95263.00;5061822;28;20044;-77
2023/04/10 10:17:30;;;;;;;13.27;10.30;;;;;;;12.96;46.02;95275.09;5063505;28;20028;-77
2023/04/10 10:20:03;;;;;;;13.07;9.65;;;;;;;12.70;45.93;95222.16;5057410;28;20021;-77
2023/04/10 10:22:29;;;;;;;15.15;9.48;;;;;;;12.99;46.04;95251.34;5065097;28;20036;-77
2023/04/10 10:24:55;;;;;;;16.60;10.68;;;;;;;12.77;46.38;95221.81;5056535;28;20098;-76
2023/04/10 10:27:23;;;;;;;13.45;9.43;;;;;;;12.98;46.30;95259.59;5065206;28;20036;-76
2023/04/10 10:29:52;;;;;;;14.75;9.98;;;;;;;12.38;48.37;95232.66;5063111;28;20033;-78
2023/04/10 10:32:17;;;;;;;18.95;10.95;;;;;;;12.71;48.35;95261.00;5061012;28;20024;-76
2023/04/10 10:34:44;;;;;;;15.35;10.60;;;;;;;12.76;47.17;95239.66;5058562;28;20028;-76
2023/04/10 10:37:11;;;;;;;14.23;9.57;;;;;;;13.42;46.86;95254.78;5062049;28;20039;-77
2023/04/10 10:40:14;;;;;;;15.00;9.40;;;;;;;13.75;46.27;95255.59;5061292;28;20046;-77
2023/04/10 10:43:12;;;;;;;16.17;9.73;;;;;;;13.66;44.47;95219.22;5036274;28;20087;-76
2023/04/10 10:46:01;;;;;;;17.58;9.73;;;;;;;13.90;44.71;95251.88;5051776;28;20056;-77
2023/04/10 10:48:27;;;;;;;32.97;10.27;;;;;;;13.45;44.61;95214.22;5065796;28;20392;-78
2023/04/10 10:50:59;;;;;;;19.10;10.68;;;;;;;13.14;45.63;95170.50;5065937;28;20055;-77
2023/04/10 10:53:37;;;;;;;;;;;;;;;13.51;44.63;95237.03;5066996;28;20097;-77
2023/04/10 10:56:18;;;;;;;15.23;10.60;;;;;;;13.68;44.08;95238.38;5062273;28;20019;-77
2023/04/10 10:58:56;;;;;;;17.30;10.98;;;;;;;13.61;44.80;95230.78;5054126;28;20040;-79
2023/04/10 11:01:22;;;;;;;14.20;10.05;;;;;;;13.47;44.18;95177.44;5057115;28;20052;-78
2023/04/10 11:03:47;;;;;;;17.38;10.82;;;;;;;13.73;44.94;95228.44;5056118;28;20045;-79
2023/04/10 11:06:18;;;;;;;16.08;9.73;;;;;;;13.82;43.54;95199.22;5047399;28;20062;-77
2023/04/10 11:08:50;;;;;;;14.48;9.65;;;;;;;14.42;42.78;95224.03;5055728;28;20049;-77
2023/04/10 11:11:22;;;;;;;15.02;9.85;;;;;;;14.84;41.93;95214.94;5052316;28;20037;-77
2023/04/10 11:13:56;;;;;;;16.63;10.25;;;;;;;15.00;39.99;95210.06;5061990;28;20040;-77
2023/04/10 11:16:42;;;;;;;11.30;8.35;;;;;;;15.11;40.57;95189.25;5060610;28;20063;-77
2023/04/10 11:19:13;;;;;;;13.30;9.25;;;;;;;15.18;40.97;95209.13;5064276;28;20044;-78
2023/04/10 11:22:02;;;;;;;11.18;8.70;;;;;;;15.22;40.71;95212.78;5028089;28;20454;-78
2023/04/10 11:24:28;;;;;;;15.30;9.35;;;;;;;14.82;41.31;95210.97;5048668;28;20037;-78
2023/04/10 11:26:55;;;;;;;21.75;11.20;;;;;;;14.17;42.49;95176.50;5061830;28;20410;-77